Pagina principale
METAR-TAF:

METAR-TAF

Aeroporti :

Bluefields, Nicaragua

latitudine: 12-00N, longitudine: 083-46W, altezza: 5 m

Osservazione

Il bollettino è stato emesso 41 minuti fa, alle 15:00 UTC
Vento 4 kt da nord-est
Temperature 31°C
Umidità 79%
Pressione 1012 hPa
Visibilità 10 km o più
Nuvoloso ad un'altezza di 1800 ft

METAR: MNBL 221500Z 05004KT 9999 BKN018 31/27 Q1012

Ora: 09:41 (15:41 UTC)

Previsione

Il bollettino è stato emesso 18 ore e 6 minuti fa, alle 21:35 UTC
Previsione valida dal 22 alle 00 UTC al 22 alle 24 UTC
Vento 4 kt da nord-est
Visibilità: 8000 m
Nuvoloso ad un'altezza di 1600 ft
nelle vicinanze, pioggia
Evoluzione graduale
dal 22 alle 06 UTC al 22 alle 10 UTC
Visibilità 10 km o più
Nubi sparse ad un'altezza di 1800 ft
Temporaneamente
dal 22 alle 12 UTC al 22 alle 18 UTC
Vento 10 kt da est/nord-est

TAF: MNBL 212135Z 2200/2224 05004KT 8000 VCRA BKN016 BECMG 2206/2210 9999 SCT018 TEMPO 2212/2218 07010KT

Osservazioni e previsioni meteorologiche di più di 4000 aeroporti (messaggi METAR e TAF).

Le stazioni disponibili sono rappresentate dai dischi gialli e rossi sulla carta.

Puntare il mouse per vedere il nome della stazione.

Clicca sopra per visualizzare le osservazioni e previsioni meteorologiche.

Per cambiare la mappa : fare clic sui pulsanti verdi con una croce nera per ingrandire, il pulsante verde con un trattino per diminuire, o sulla freccia verde per le mappe adiacenti.


METAR-TAF: